sensor_id;sensor_type;location;lat;lon;timestamp;pressure;altitude;pressure_sealevel;temperature;humidity
10176;BME280;18221;38.704;0.152;2023-02-18T00:02:50;100412.44;;;14.27;56.96
10176;BME280;18221;38.704;0.152;2023-02-18T00:05:21;100408.22;;;14.24;56.99
10176;BME280;18221;38.704;0.152;2023-02-18T00:07:49;100407.31;;;14.03;57.36
10176;BME280;18221;38.704;0.152;2023-02-18T00:10:19;100406.66;;;13.90;57.40
10176;BME280;18221;38.704;0.152;2023-02-18T00:12:48;100402.50;;;13.97;57.62
10176;BME280;18221;38.704;0.152;2023-02-18T00:15:16;100399.59;;;14.00;57.35
10176;BME280;18221;38.704;0.152;2023-02-18T00:17:45;100406.28;;;13.94;57.23
10176;BME280;18221;38.704;0.152;2023-02-18T00:20:15;100394.47;;;13.76;57.79
10176;BME280;18221;38.704;0.152;2023-02-18T00:22:43;100397.25;;;13.75;57.81
10176;BME280;18221;38.704;0.152;2023-02-18T00:25:12;100404.31;;;13.65;58.19
10176;BME280;18221;38.704;0.152;2023-02-18T00:27:41;100407.44;;;13.70;58.58
10176;BME280;18221;38.704;0.152;2023-02-18T00:30:10;100410.06;;;13.92;57.96
10176;BME280;18221;38.704;0.152;2023-02-18T00:32:38;100406.63;;;14.01;57.61
10176;BME280;18221;38.704;0.152;2023-02-18T00:35:08;100404.44;;;13.95;57.64
10176;BME280;18221;38.704;0.152;2023-02-18T00:37:38;100403.72;;;13.93;57.87
10176;BME280;18221;38.704;0.152;2023-02-18T00:40:08;100406.63;;;14.01;57.04
10176;BME280;18221;38.704;0.152;2023-02-18T00:42:36;100406.66;;;13.90;57.69
10176;BME280;18221;38.704;0.152;2023-02-18T00:45:06;100408.78;;;14.07;57.30
10176;BME280;18221;38.704;0.152;2023-02-18T00:47:34;100403.19;;;14.10;56.82
10176;BME280;18221;38.704;0.152;2023-02-18T00:50:02;100400.28;;;14.13;56.98
10176;BME280;18221;38.704;0.152;2023-02-18T00:52:31;100400.97;;;14.15;56.45
10176;BME280;18221;38.704;0.152;2023-02-18T00:55:01;100406.22;;;14.05;56.77
10176;BME280;18221;38.704;0.152;2023-02-18T00:57:29;100399.97;;;14.16;56.69
10176;BME280;18221;38.704;0.152;2023-02-18T00:59:58;100393.00;;;14.04;56.89
10176;BME280;18221;38.704;0.152;2023-02-18T01:02:27;100385.97;;;14.03;56.71
10176;BME280;18221;38.704;0.152;2023-02-18T01:04:55;100383.47;;;13.90;56.96
10176;BME280;18221;38.704;0.152;2023-02-18T01:07:24;100381.59;;;13.81;57.11
10176;BME280;18221;38.704;0.152;2023-02-18T01:09:53;100384.53;;;13.67;57.80
10176;BME280;18221;38.704;0.152;2023-02-18T01:12:23;100375.97;;;13.41;58.69
10176;BME280;18221;38.704;0.152;2023-02-18T01:14:51;100379.97;;;13.58;58.38
10176;BME280;18221;38.704;0.152;2023-02-18T01:17:20;100387.09;;;13.69;57.95
10176;BME280;18221;38.704;0.152;2023-02-18T01:19:49;100386.31;;;13.78;58.25
10176;BME280;18221;38.704;0.152;2023-02-18T01:22:17;100389.25;;;13.63;58.33
10176;BME280;18221;38.704;0.152;2023-02-18T01:24:46;100391.16;;;13.84;58.05
10176;BME280;18221;38.704;0.152;2023-02-18T01:27:14;100382.25;;;13.94;57.67
10176;BME280;18221;38.704;0.152;2023-02-18T01:29:44;100378.97;;;13.91;57.35
10176;BME280;18221;38.704;0.152;2023-02-18T01:32:13;100377.00;;;13.61;58.16
10176;BME280;18221;38.704;0.152;2023-02-18T01:34:41;100376.47;;;13.46;58.56
10176;BME280;18221;38.704;0.152;2023-02-18T01:37:10;100376.00;;;13.30;58.92
10176;BME280;18221;38.704;0.152;2023-02-18T01:39:38;100377.88;;;13.61;58.47
10176;BME280;18221;38.704;0.152;2023-02-18T01:42:11;100374.44;;;13.82;57.70
10176;BME280;18221;38.704;0.152;2023-02-18T01:44:48;100379.34;;;13.54;58.36
10176;BME280;18221;38.704;0.152;2023-02-18T01:47:17;100375.97;;;13.52;58.41
10176;BME280;18221;38.704;0.152;2023-02-18T01:49:50;100374.94;;;13.65;58.12
10176;BME280;18221;38.704;0.152;2023-02-18T01:52:24;100369.22;;;13.37;58.54
10176;BME280;18221;38.704;0.152;2023-02-18T01:54:56;100370.97;;;13.48;58.72
10176;BME280;18221;38.704;0.152;2023-02-18T01:57:30;100365.34;;;13.73;58.22
10176;BME280;18221;38.704;0.152;2023-02-18T02:00:08;100364.53;;;13.61;58.10
10176;BME280;18221;38.704;0.152;2023-02-18T02:02:43;100361.09;;;13.71;57.99
10176;BME280;18221;38.704;0.152;2023-02-18T02:05:13;100361.66;;;13.85;57.08
10176;BME280;18221;38.704;0.152;2023-02-18T02:07:44;100370.56;;;13.95;56.75
10176;BME280;18221;38.704;0.152;2023-02-18T02:10:14;100378.97;;;13.91;56.70
10176;BME280;18221;38.704;0.152;2023-02-18T02:12:57;100368.13;;;14.03;56.21
10176;BME280;18221;38.704;0.152;2023-02-18T02:15:37;100367.72;;;14.08;56.20
10176;BME280;18221;38.704;0.152;2023-02-18T02:18:25;100366.81;;;14.18;55.99
10176;BME280;18221;38.704;0.152;2023-02-18T02:25:07;100367.81;;;14.17;55.99
10176;BME280;18221;38.704;0.152;2023-02-18T02:28:35;100354.31;;;14.19;55.95
10176;BME280;18221;38.704;0.152;2023-02-18T02:34:43;100364.28;;;14.17;56.13
10176;BME280;18221;38.704;0.152;2023-02-18T02:37:23;100358.47;;;13.91;56.70
10176;BME280;18221;38.704;0.152;2023-02-18T02:40:08;100360.03;;;13.94;56.63
10176;BME280;18221;38.704;0.152;2023-02-18T02:42:54;100365.03;;;13.87;56.96
10176;BME280;18221;38.704;0.152;2023-02-18T02:45:45;100358.00;;;13.86;56.91
10176;BME280;18221;38.704;0.152;2023-02-18T02:48:27;100354.19;;;14.00;56.40
10176;BME280;18221;38.704;0.152;2023-02-18T02:51:08;100358.59;;;13.90;56.88
10176;BME280;18221;38.704;0.152;2023-02-18T02:53:42;100358.66;;;13.79;56.80
10176;BME280;18221;38.704;0.152;2023-02-18T02:56:14;100360.53;;;13.88;56.88
10176;BME280;18221;38.704;0.152;2023-02-18T02:58:46;100353.88;;;13.82;56.61
10176;BME280;18221;38.704;0.152;2023-02-18T03:01:35;100348.03;;;13.88;56.49
10176;BME280;18221;38.704;0.152;2023-02-18T03:04:35;100356.75;;;13.90;56.46
10176;BME280;18221;38.704;0.152;2023-02-18T03:10:41;100359.09;;;13.52;57.15
10176;BME280;18221;38.704;0.152;2023-02-18T03:13:25;100355.47;;;13.53;57.55
10176;BME280;18221;38.704;0.152;2023-02-18T03:15:59;100360.91;;;13.51;57.57
10176;BME280;18221;38.704;0.152;2023-02-18T03:18:37;100362.69;;;13.73;57.07
10176;BME280;18221;38.704;0.152;2023-02-18T03:21:12;100364.53;;;13.61;57.08
10176;BME280;18221;38.704;0.152;2023-02-18T03:23:50;100358.22;;;13.63;57.47
10176;BME280;18221;38.704;0.152;2023-02-18T03:26:23;100356.91;;;13.57;57.17
10176;BME280;18221;38.704;0.152;2023-02-18T03:28:57;100354.88;;;13.49;57.05
10176;BME280;18221;38.704;0.152;2023-02-18T03:31:31;100353.13;;;13.59;56.95
10176;BME280;18221;38.704;0.152;2023-02-18T03:34:06;100349.44;;;13.72;56.65
10176;BME280;18221;38.704;0.152;2023-02-18T03:36:37;100346.06;;;13.70;56.61
10176;BME280;18221;38.704;0.152;2023-02-18T03:39:15;100349.53;;;13.81;56.66
10176;BME280;18221;38.704;0.152;2023-02-18T03:41:44;100352.09;;;13.72;56.79
10176;BME280;18221;38.704;0.152;2023-02-18T03:44:13;100358.91;;;13.76;56.71
10176;BME280;18221;38.704;0.152;2023-02-18T03:46:43;100352.91;;;13.83;56.58
10176;BME280;18221;38.704;0.152;2023-02-18T03:49:14;100348.03;;;13.88;55.90
10176;BME280;18221;38.704;0.152;2023-02-18T03:51:43;100339.19;;;13.88;55.90
10176;BME280;18221;38.704;0.152;2023-02-18T03:54:13;100342.56;;;13.90;55.91
10176;BME280;18221;38.704;0.152;2023-02-18T03:56:42;100339.44;;;13.85;56.14
10176;BME280;18221;38.704;0.152;2023-02-18T03:59:11;100337.28;;;13.79;56.09
10176;BME280;18221;38.704;0.152;2023-02-18T04:01:40;100334.53;;;13.69;55.93
10176;BME280;18221;38.704;0.152;2023-02-18T04:04:08;100325.81;;;13.67;56.14
10176;BME280;18221;38.704;0.152;2023-02-18T04:06:37;100318.81;;;13.87;55.81
10176;BME280;18221;38.704;0.152;2023-02-18T04:09:05;100322.25;;;13.78;56.08
10176;BME280;18221;38.704;0.152;2023-02-18T04:11:38;100322.38;;;13.76;56.20
10176;BME280;18221;38.704;0.152;2023-02-18T04:14:07;100318.16;;;13.74;56.13
10176;BME280;18221;38.704;0.152;2023-02-18T04:16:36;100315.28;;;13.86;55.90
10176;BME280;18221;38.704;0.152;2023-02-18T04:19:05;100318.66;;;13.68;56.10
10176;BME280;18221;38.704;0.152;2023-02-18T04:21:34;100316.56;;;13.39;56.82
10176;BME280;18221;38.704;0.152;2023-02-18T04:24:02;100313.28;;;13.47;56.67
10176;BME280;18221;38.704;0.152;2023-02-18T04:26:31;100305.50;;;13.44;56.75
10176;BME280;18221;38.704;0.152;2023-02-18T04:29:01;100313.28;;;13.36;57.00
10176;BME280;18221;38.704;0.152;2023-02-18T04:31:29;100313.59;;;13.22;57.52
10176;BME280;18221;38.704;0.152;2023-02-18T04:33:57;100310.88;;;13.33;57.37
10176;BME280;18221;38.704;0.152;2023-02-18T04:36:26;100310.63;;;13.36;57.47
10176;BME280;18221;38.704;0.152;2023-02-18T04:38:54;100315.75;;;13.28;57.50
10176;BME280;18221;38.704;0.152;2023-02-18T04:41:23;100320.34;;;13.37;57.47
10176;BME280;18221;38.704;0.152;2023-02-18T04:43:51;100322.16;;;13.36;57.49
10176;BME280;18221;38.704;0.152;2023-02-18T04:46:21;100323.03;;;13.26;57.86
10176;BME280;18221;38.704;0.152;2023-02-18T04:48:50;100323.75;;;13.28;57.46
10176;BME280;18221;38.704;0.152;2023-02-18T04:51:18;100328.59;;;13.34;57.28
10176;BME280;18221;38.704;0.152;2023-02-18T04:53:47;100331.38;;;13.32;57.37
10176;BME280;18221;38.704;0.152;2023-02-18T04:56:15;100331.47;;;13.42;57.17
10176;BME280;18221;38.704;0.152;2023-02-18T04:58:44;100324.78;;;13.47;57.18
10176;BME280;18221;38.704;0.152;2023-02-18T05:01:12;100327.47;;;13.47;56.93
10176;BME280;18221;38.704;0.152;2023-02-18T05:03:42;100327.06;;;13.52;56.81
10176;BME280;18221;38.704;0.152;2023-02-18T05:06:12;100323.63;;;13.61;56.52
10176;BME280;18221;38.704;0.152;2023-02-18T05:08:40;100326.84;;;13.44;56.57
10176;BME280;18221;38.704;0.152;2023-02-18T05:11:09;100325.91;;;13.34;57.23
10176;BME280;18221;38.704;0.152;2023-02-18T05:13:37;100324.34;;;13.31;57.23
10176;BME280;18221;38.704;0.152;2023-02-18T05:16:05;100321.47;;;13.23;57.00
10176;BME280;18221;38.704;0.152;2023-02-18T05:18:34;100329.94;;;13.17;57.49
10176;BME280;18221;38.704;0.152;2023-02-18T05:21:04;100325.09;;;13.22;57.13
10176;BME280;18221;38.704;0.152;2023-02-18T05:23:33;100323.28;;;13.12;57.58
10176;BME280;18221;38.704;0.152;2023-02-18T05:26:02;100319.25;;;13.39;57.03
10176;BME280;18221;38.704;0.152;2023-02-18T05:28:30;100324.13;;;13.12;57.48
10176;BME280;18221;38.704;0.152;2023-02-18T05:30:59;100328.50;;;13.24;57.22
10176;BME280;18221;38.704;0.152;2023-02-18T05:33:27;100316.88;;;13.03;58.00
10176;BME280;18221;38.704;0.152;2023-02-18T05:35:56;100328.25;;;13.05;57.95
10176;BME280;18221;38.704;0.152;2023-02-18T05:38:26;100328.72;;;12.88;58.34
10176;BME280;18221;38.704;0.152;2023-02-18T05:40:55;100318.19;;;12.97;58.69
10176;BME280;18221;38.704;0.152;2023-02-18T05:43:23;100326.06;;;12.88;58.65
10176;BME280;18221;38.704;0.152;2023-02-18T05:45:52;100319.16;;;12.96;58.57
10176;BME280;18221;38.704;0.152;2023-02-18T05:48:20;100322.44;;;13.00;58.42
10176;BME280;18221;38.704;0.152;2023-02-18T05:50:49;100318.91;;;12.99;58.65
10176;BME280;18221;38.704;0.152;2023-02-18T05:53:19;100317.22;;;12.98;58.53
10176;BME280;18221;38.704;0.152;2023-02-18T05:55:49;100302.22;;;13.09;58.39
10176;BME280;18221;38.704;0.152;2023-02-18T05:58:17;100303.06;;;12.98;58.46
10176;BME280;18221;38.704;0.152;2023-02-18T06:00:48;100315.19;;;12.58;59.75
10176;BME280;18221;38.704;0.152;2023-02-18T06:03:16;100306.94;;;12.83;59.47
10176;BME280;18221;38.704;0.152;2023-02-18T06:05:48;100311.63;;;13.01;58.62
10176;BME280;18221;38.704;0.152;2023-02-18T06:08:17;100310.44;;;12.83;58.88
10176;BME280;18221;38.704;0.152;2023-02-18T06:10:46;100324.88;;;13.03;58.86
10176;BME280;18221;38.704;0.152;2023-02-18T06:13:16;100317.59;;;13.05;58.43
10176;BME280;18221;38.704;0.152;2023-02-18T06:15:51;100315.66;;;13.07;58.21
10176;BME280;18221;38.704;0.152;2023-02-18T06:18:20;100313.44;;;13.01;58.51
10176;BME280;18221;38.704;0.152;2023-02-18T06:20:58;100320.25;;;13.05;58.37
10176;BME280;18221;38.704;0.152;2023-02-18T06:23:26;100321.00;;;13.18;58.22
10176;BME280;18221;38.704;0.152;2023-02-18T06:25:55;100322.81;;;13.18;58.07
10176;BME280;18221;38.704;0.152;2023-02-18T06:28:25;100329.22;;;13.15;58.09
10176;BME280;18221;38.704;0.152;2023-02-18T06:30:54;100330.66;;;13.19;57.84
10176;BME280;18221;38.704;0.152;2023-02-18T06:33:47;100327.66;;;13.13;57.83
10176;BME280;18221;38.704;0.152;2023-02-18T06:36:16;100323.41;;;13.10;58.09
10176;BME280;18221;38.704;0.152;2023-02-18T06:38:46;100323.19;;;13.13;57.76
10176;BME280;18221;38.704;0.152;2023-02-18T06:41:15;100327.28;;;13.17;57.54
10176;BME280;18221;38.704;0.152;2023-02-18T06:43:45;100335.06;;;13.09;57.57
10176;BME280;18221;38.704;0.152;2023-02-18T06:46:14;100336.84;;;13.20;57.60
10176;BME280;18221;38.704;0.152;2023-02-18T06:48:42;100334.94;;;13.11;57.76
10176;BME280;18221;38.704;0.152;2023-02-18T06:51:10;100334.66;;;13.25;57.59
10176;BME280;18221;38.704;0.152;2023-02-18T06:53:39;100335.75;;;13.33;57.13
10176;BME280;18221;38.704;0.152;2023-02-18T06:56:07;100333.31;;;13.30;57.20
10176;BME280;18221;38.704;0.152;2023-02-18T06:58:36;100332.97;;;13.24;57.16
10176;BME280;18221;38.704;0.152;2023-02-18T07:01:06;100333.22;;;13.21;57.43
10176;BME280;18221;38.704;0.152;2023-02-18T07:03:35;100327.81;;;13.11;57.53
10176;BME280;18221;38.704;0.152;2023-02-18T07:06:04;100332.00;;;13.25;57.29
10176;BME280;18221;38.704;0.152;2023-02-18T07:08:33;100322.66;;;13.30;56.92
10176;BME280;18221;38.704;0.152;2023-02-18T07:11:03;100335.88;;;13.21;57.30
10176;BME280;18221;38.704;0.152;2023-02-18T07:13:31;100334.31;;;13.18;57.25
10176;BME280;18221;38.704;0.152;2023-02-18T07:16:03;100347.66;;;13.07;57.55
10176;BME280;18221;38.704;0.152;2023-02-18T07:18:33;100337.59;;;12.99;57.83
10176;BME280;18221;38.704;0.152;2023-02-18T07:21:02;100337.81;;;12.96;58.18
10176;BME280;18221;38.704;0.152;2023-02-18T07:23:30;100342.06;;;12.99;58.04
10176;BME280;18221;38.704;0.152;2023-02-18T07:26:11;100335.28;;;13.06;58.17
10176;BME280;18221;38.704;0.152;2023-02-18T07:28:40;100332.38;;;13.20;57.71
10176;BME280;18221;38.704;0.152;2023-02-18T07:31:09;100343.78;;;13.00;57.97
10176;BME280;18221;38.704;0.152;2023-02-18T07:33:39;100352.75;;;13.10;57.91
10176;BME280;18221;38.704;0.152;2023-02-18T07:36:09;100354.44;;;13.00;58.18
10176;BME280;18221;38.704;0.152;2023-02-18T07:38:37;100341.84;;;13.13;57.81
10176;BME280;18221;38.704;0.152;2023-02-18T07:41:06;100338.09;;;13.16;57.91
10176;BME280;18221;38.704;0.152;2023-02-18T07:43:35;100341.69;;;13.03;58.19
10176;BME280;18221;38.704;0.152;2023-02-18T07:46:06;100342.34;;;13.07;58.32
10176;BME280;18221;38.704;0.152;2023-02-18T07:48:34;100340.28;;;13.22;58.03
10176;BME280;18221;38.704;0.152;2023-02-18T07:51:09;100340.34;;;13.31;57.72
10176;BME280;18221;38.704;0.152;2023-02-18T07:53:38;100347.09;;;13.46;57.49
10176;BME280;18221;38.704;0.152;2023-02-18T07:56:07;100353.16;;;13.48;57.05
10176;BME280;18221;38.704;0.152;2023-02-18T07:58:37;100352.22;;;13.38;57.30
10176;BME280;18221;38.704;0.152;2023-02-18T08:01:08;100362.16;;;13.36;57.58
10176;BME280;18221;38.704;0.152;2023-02-18T08:03:37;100366.97;;;13.53;57.24
10176;BME280;18221;38.704;0.152;2023-02-18T08:06:12;100371.38;;;13.43;57.74
10176;BME280;18221;38.704;0.152;2023-02-18T08:08:46;100375.50;;;13.47;57.63
10176;BME280;18221;38.704;0.152;2023-02-18T08:11:15;100385.19;;;13.48;57.40
10176;BME280;18221;38.704;0.152;2023-02-18T08:13:43;100385.53;;;13.55;57.31
10176;BME280;18221;38.704;0.152;2023-02-18T08:16:12;100396.78;;;13.70;57.19
10176;BME280;18221;38.704;0.152;2023-02-18T08:18:40;100389.06;;;13.55;57.07
10176;BME280;18221;38.704;0.152;2023-02-18T08:21:11;100386.00;;;13.60;57.43
10176;BME280;18221;38.704;0.152;2023-02-18T08:23:39;100393.06;;;13.50;57.44
10176;BME280;18221;38.704;0.152;2023-02-18T08:26:09;100386.25;;;13.57;57.19
10176;BME280;18221;38.704;0.152;2023-02-18T08:28:38;100386.28;;;13.46;57.19
10176;BME280;18221;38.704;0.152;2023-02-18T08:31:07;100387.13;;;13.46;57.29
10176;BME280;18221;38.704;0.152;2023-02-18T08:33:36;100391.22;;;13.61;57.26
10176;BME280;18221;38.704;0.152;2023-02-18T08:36:09;100395.81;;;13.71;56.89
10176;BME280;18221;38.704;0.152;2023-02-18T08:38:38;100398.69;;;13.79;56.83
10176;BME280;18221;38.704;0.152;2023-02-18T08:41:08;100399.84;;;13.97;56.14
10176;BME280;18221;38.704;0.152;2023-02-18T08:43:37;100400.81;;;13.96;56.13
10176;BME280;18221;38.704;0.152;2023-02-18T08:46:06;100399.09;;;13.95;56.24
10176;BME280;18221;38.704;0.152;2023-02-18T08:48:34;100390.91;;;13.87;56.08
10176;BME280;18221;38.704;0.152;2023-02-18T08:51:16;100387.00;;;13.91;56.38
10176;BME280;18221;38.704;0.152;2023-02-18T08:53:46;100395.03;;;13.80;56.40
10176;BME280;18221;38.704;0.152;2023-02-18T08:56:15;100386.31;;;13.78;56.48
10176;BME280;18221;38.704;0.152;2023-02-18T08:58:44;100391.59;;;14.00;55.98
10176;BME280;18221;38.704;0.152;2023-02-18T09:01:13;100384.03;;;14.05;56.14
10176;BME280;18221;38.704;0.152;2023-02-18T09:03:42;100384.94;;;14.15;55.56
10176;BME280;18221;38.704;0.152;2023-02-18T09:06:13;100394.63;;;14.16;55.60
10176;BME280;18221;38.704;0.152;2023-02-18T09:08:43;100405.94;;;14.19;55.41
10176;BME280;18221;38.704;0.152;2023-02-18T09:11:12;100410.59;;;14.06;55.49
10176;BME280;18221;38.704;0.152;2023-02-18T09:13:41;100412.81;;;14.33;55.09
10176;BME280;18221;38.704;0.152;2023-02-18T09:16:14;100423.63;;;14.32;55.32
10176;BME280;18221;38.704;0.152;2023-02-18T09:18:45;100420.94;;;14.52;54.82
10176;BME280;18221;38.704;0.152;2023-02-18T09:21:17;100429.41;;;14.57;54.48
10176;BME280;18221;38.704;0.152;2023-02-18T09:23:46;100429.09;;;14.71;54.46
10176;BME280;18221;38.704;0.152;2023-02-18T09:26:17;100433.53;;;14.82;54.15
10176;BME280;18221;38.704;0.152;2023-02-18T09:28:49;100436.47;;;14.79;54.26
10176;BME280;18221;38.704;0.152;2023-02-18T09:31:22;100433.97;;;14.87;54.17
10176;BME280;18221;38.704;0.152;2023-02-18T09:33:55;100430.72;;;14.83;53.81
10176;BME280;18221;38.704;0.152;2023-02-18T09:36:27;100434.38;;;14.82;53.97
10176;BME280;18221;38.704;0.152;2023-02-18T09:38:56;100432.69;;;14.81;54.34
10176;BME280;18221;38.704;0.152;2023-02-18T09:41:35;100436.69;;;14.97;54.22
10176;BME280;18221;38.704;0.152;2023-02-18T09:44:10;100438.94;;;14.71;54.68
10176;BME280;18221;38.704;0.152;2023-02-18T09:46:49;100434.38;;;14.82;54.22
10176;BME280;18221;38.704;0.152;2023-02-18T09:49:24;100441.16;;;14.87;54.58
10176;BME280;18221;38.704;0.152;2023-02-18T09:51:56;100441.72;;;15.11;54.29
10176;BME280;18221;38.704;0.152;2023-02-18T09:54:30;100445.00;;;15.24;53.94
10176;BME280;18221;38.704;0.152;2023-02-18T09:57:00;100449.69;;;15.31;53.69
10176;BME280;18221;38.704;0.152;2023-02-18T09:59:30;100452.88;;;15.25;53.64
10176;BME280;18221;38.704;0.152;2023-02-18T10:02:01;100454.19;;;15.31;53.46
10176;BME280;18221;38.704;0.152;2023-02-18T10:04:36;100453.47;;;15.29;53.48
10176;BME280;18221;38.704;0.152;2023-02-18T10:07:20;100448.88;;;15.10;53.93
10176;BME280;18221;38.704;0.152;2023-02-18T10:09:53;100442.16;;;15.16;53.68
10176;BME280;18221;38.704;0.152;2023-02-18T10:12:25;100447.25;;;15.19;53.51
10176;BME280;18221;38.704;0.152;2023-02-18T10:14:58;100446.72;;;15.25;53.61
10176;BME280;18221;38.704;0.152;2023-02-18T10:17:30;100453.03;;;15.24;53.32
10176;BME280;18221;38.704;0.152;2023-02-18T10:20:00;100443.25;;;15.13;53.58
10176;BME280;18221;38.704;0.152;2023-02-18T10:22:32;100443.41;;;15.12;53.88
10176;BME280;18221;38.704;0.152;2023-02-18T10:25:04;100441.88;;;15.19;53.67
10176;BME280;18221;38.704;0.152;2023-02-18T10:27:36;100448.75;;;15.12;53.92
10176;BME280;18221;38.704;0.152;2023-02-18T10:30:22;100448.09;;;15.19;53.86
10176;BME280;18221;38.704;0.152;2023-02-18T10:32:57;100453.75;;;15.26;53.80
10176;BME280;18221;38.704;0.152;2023-02-18T10:35:36;100444.91;;;15.35;53.51
10176;BME280;18221;38.704;0.152;2023-02-18T10:38:20;100445.84;;;15.55;53.33
10176;BME280;18221;38.704;0.152;2023-02-18T10:41:00;100442.63;;;15.51;52.98
10176;BME280;18221;38.704;0.152;2023-02-18T10:43:46;100448.53;;;15.55;52.94
10176;BME280;18221;38.704;0.152;2023-02-18T10:46:28;100448.09;;;15.59;52.94
10176;BME280;18221;38.704;0.152;2023-02-18T10:49:26;100444.34;;;15.71;52.30
10176;BME280;18221;38.704;0.152;2023-02-18T10:52:02;100445.75;;;15.75;52.74
10176;BME280;18221;38.704;0.152;2023-02-18T10:54:51;100438.28;;;15.79;52.19
10176;BME280;18221;38.704;0.152;2023-02-18T10:57:22;100430.84;;;15.92;51.62
10176;BME280;18221;38.704;0.152;2023-02-18T10:59:57;100432.66;;;15.91;51.68
10176;BME280;18221;38.704;0.152;2023-02-18T11:02:29;100434.34;;;15.83;51.50
10176;BME280;18221;38.704;0.152;2023-02-18T11:05:06;100425.06;;;15.96;51.40
10176;BME280;18221;38.704;0.152;2023-02-18T11:07:49;100420.41;;;15.98;51.37
10176;BME280;18221;38.704;0.152;2023-02-18T11:10:24;100422.09;;;16.09;51.33
10176;BME280;18221;38.704;0.152;2023-02-18T11:12:59;100422.09;;;16.09;51.39
10176;BME280;18221;38.704;0.152;2023-02-18T11:15:33;100418.16;;;16.23;51.06
10176;BME280;18221;38.704;0.152;2023-02-18T11:18:19;100409.69;;;16.37;50.50
10176;BME280;18221;38.704;0.152;2023-02-18T11:20:57;100410.53;;;16.28;50.85
10176;BME280;18221;38.704;0.152;2023-02-18T11:23:26;100410.84;;;16.05;51.36
10176;BME280;18221;38.704;0.152;2023-02-18T11:26:00;100408.44;;;16.02;51.44
10176;BME280;18221;38.704;0.152;2023-02-18T11:28:43;100401.09;;;16.04;51.91
10176;BME280;18221;38.704;0.152;2023-02-18T11:31:21;100403.19;;;16.01;52.17
10176;BME280;18221;38.704;0.152;2023-02-18T11:33:54;100397.56;;;16.23;51.81
10176;BME280;18221;38.704;0.152;2023-02-18T11:36:28;100403.47;;;16.36;51.32
10176;BME280;18221;38.704;0.152;2023-02-18T11:38:59;100398.38;;;16.43;51.12
10176;BME280;18221;38.704;0.152;2023-02-18T11:41:35;100398.75;;;16.86;50.56
10176;BME280;18221;38.704;0.152;2023-02-18T11:44:24;100403.91;;;16.60;50.48
10176;BME280;18221;38.704;0.152;2023-02-18T11:47:00;100405.16;;;16.56;50.47
10176;BME280;18221;38.704;0.152;2023-02-18T11:49:31;100400.63;;;16.76;50.49
10176;BME280;18221;38.704;0.152;2023-02-18T11:52:15;100395.25;;;16.76;50.25
10176;BME280;18221;38.704;0.152;2023-02-18T11:55:00;100392.09;;;16.90;49.80
10176;BME280;18221;38.704;0.152;2023-02-18T11:57:31;100392.19;;;16.98;49.39
10176;BME280;18221;38.704;0.152;2023-02-18T12:00:02;100389.28;;;16.82;49.66
10176;BME280;18221;38.704;0.152;2023-02-18T12:02:36;100377.53;;;16.93;49.62
10176;BME280;18221;38.704;0.152;2023-02-18T12:05:15;100379.91;;;17.33;48.78
10176;BME280;18221;38.704;0.152;2023-02-18T12:07:48;100373.63;;;17.42;48.39
10176;BME280;18221;38.704;0.152;2023-02-18T12:10:26;100366.28;;;17.44;48.35
10176;BME280;18221;38.704;0.152;2023-02-18T12:13:02;100358.09;;;17.63;47.86
10176;BME280;18221;38.704;0.152;2023-02-18T12:15:46;100356.28;;;17.81;47.20
10176;BME280;18221;38.704;0.152;2023-02-18T12:18:55;100346.94;;;17.85;46.56
10176;BME280;18221;38.704;0.152;2023-02-18T12:21:38;100343.38;;;18.02;46.31
10176;BME280;18221;38.704;0.152;2023-02-18T12:24:30;100343.59;;;17.73;46.76
10176;BME280;18221;38.704;0.152;2023-02-18T12:27:11;100345.69;;;17.79;46.80
10176;BME280;18221;38.704;0.152;2023-02-18T12:32:48;100330.81;;;17.85;46.93
10176;BME280;18221;38.704;0.152;2023-02-18T12:35:47;100331.78;;;17.84;47.15
10176;BME280;18221;38.704;0.152;2023-02-18T12:41:57;100323.97;;;17.91;45.87
10176;BME280;18221;38.704;0.152;2023-02-18T12:44:39;100322.38;;;18.23;45.76
10176;BME280;18221;38.704;0.152;2023-02-18T12:51:01;100308.03;;;18.58;45.06
10176;BME280;18221;38.704;0.152;2023-02-18T12:54:13;100303.97;;;18.36;44.04
10176;BME280;18221;38.704;0.152;2023-02-18T12:57:26;100300.03;;;18.48;44.34
10176;BME280;18221;38.704;0.152;2023-02-18T13:00:36;100303.19;;;18.18;44.62
10176;BME280;18221;38.704;0.152;2023-02-18T13:03:43;100293.66;;;18.24;44.56
10176;BME280;18221;38.704;0.152;2023-02-18T13:06:32;100285.31;;;18.09;44.93
10176;BME280;18221;38.704;0.152;2023-02-18T13:09:21;100276.91;;;18.12;44.67
10176;BME280;18221;38.704;0.152;2023-02-18T13:12:03;100270.91;;;18.18;44.53
10176;BME280;18221;38.704;0.152;2023-02-18T13:14:45;100266.81;;;18.06;44.82
10176;BME280;18221;38.704;0.152;2023-02-18T13:17:18;100259.22;;;18.27;44.54
10176;BME280;18221;38.704;0.152;2023-02-18T13:19:54;100263.41;;;18.22;44.38
10176;BME280;18221;38.704;0.152;2023-02-18T13:22:27;100247.97;;;17.80;44.79
10176;BME280;18221;38.704;0.152;2023-02-18T13:24:58;100253.44;;;17.97;44.63
10176;BME280;18221;38.704;0.152;2023-02-18T13:27:37;100249.53;;;17.91;44.18
10176;BME280;18221;38.704;0.152;2023-02-18T13:30:22;100247.63;;;17.83;44.17
10176;BME280;18221;38.704;0.152;2023-02-18T13:33:09;100243.84;;;17.94;44.39
10176;BME280;18221;38.704;0.152;2023-02-18T13:35:47;100243.56;;;17.97;44.28
10176;BME280;18221;38.704;0.152;2023-02-18T13:38:47;100241.22;;;18.02;44.48
10176;BME280;18221;38.704;0.152;2023-02-18T13:41:19;100238.41;;;18.04;44.27
10176;BME280;18221;38.704;0.152;2023-02-18T13:43:48;100237.50;;;17.95;44.40
10176;BME280;18221;38.704;0.152;2023-02-18T13:46:19;100229.81;;;18.00;44.27